createdAt,value
2017-12-10T00:00:42.566Z,11.30
2017-12-10T00:03:11.395Z,10.10
2017-12-10T00:05:40.631Z,11.32
2017-12-10T00:08:09.747Z,7.87
2017-12-10T00:10:38.029Z,11.38
2017-12-10T00:13:07.674Z,8.88
2017-12-10T00:15:36.637Z,8.95
2017-12-10T00:18:04.922Z,7.55
2017-12-10T00:20:33.219Z,7.60
2017-12-10T00:23:02.905Z,9.07
2017-12-10T00:25:32.214Z,10.15
2017-12-10T00:28:00.498Z,8.18
2017-12-10T00:30:28.835Z,12.27
2017-12-10T00:32:57.113Z,7.78
2017-12-10T00:35:26.603Z,10.57
2017-12-10T00:37:54.962Z,12.15
2017-12-10T00:40:23.241Z,9.40
2017-12-10T00:42:51.522Z,11.40
2017-12-10T00:45:19.853Z,7.83
2017-12-10T00:47:48.136Z,9.88
2017-12-10T00:50:16.420Z,7.85
2017-12-10T00:52:46.097Z,8.60
2017-12-10T00:55:14.250Z,7.07
2017-12-10T00:57:42.542Z,9.77
2017-12-10T01:00:12.239Z,14.02
2017-12-10T01:02:40.790Z,20.42
2017-12-10T01:05:09.070Z,12.57
2017-12-10T01:07:38.182Z,11.13
2017-12-10T01:10:06.479Z,15.27
2017-12-10T01:12:34.770Z,10.00
2017-12-10T01:15:03.113Z,7.72
2017-12-10T01:17:31.393Z,14.48
2017-12-10T01:20:00.813Z,8.95
2017-12-10T01:22:29.158Z,14.53
2017-12-10T01:24:57.451Z,14.40
2017-12-10T01:27:27.238Z,10.50
2017-12-10T01:29:55.578Z,10.40
2017-12-10T01:32:25.257Z,10.57
2017-12-10T01:34:54.547Z,9.88
2017-12-10T01:37:24.226Z,9.32
2017-12-10T01:39:52.390Z,13.07
2017-12-10T01:42:22.674Z,8.88
2017-12-10T01:44:51.066Z,10.27
2017-12-10T01:47:19.737Z,9.63
2017-12-10T01:49:49.376Z,9.98
2017-12-10T01:52:17.991Z,12.85
2017-12-10T01:54:47.070Z,12.63
2017-12-10T01:57:16.486Z,12.82
2017-12-10T01:59:44.860Z,10.77
2017-12-10T02:02:13.167Z,10.85
2017-12-10T02:04:41.462Z,10.40
2017-12-10T02:07:16.430Z,9.57
2017-12-10T02:09:45.106Z,12.20
2017-12-10T02:12:13.395Z,9.65
2017-12-10T02:14:41.722Z,10.38
2017-12-10T02:17:12.265Z,11.73
2017-12-10T02:19:41.298Z,10.73
2017-12-10T02:22:09.601Z,14.25
2017-12-10T02:24:38.819Z,17.08
2017-12-10T02:27:07.858Z,11.05
2017-12-10T02:29:36.910Z,12.45
2017-12-10T02:32:05.970Z,15.45
2017-12-10T02:34:34.344Z,12.60
2017-12-10T02:37:02.633Z,13.38
2017-12-10T02:39:31.021Z,10.52
2017-12-10T02:41:59.350Z,15.10
2017-12-10T02:44:27.636Z,11.48
2017-12-10T02:46:56.689Z,15.90
2017-12-10T02:49:25.033Z,12.88
2017-12-10T02:51:54.090Z,12.13
2017-12-10T02:54:23.523Z,10.25
2017-12-10T02:56:51.879Z,11.45
2017-12-10T02:59:20.938Z,12.90
2017-12-10T03:01:52.620Z,9.88
2017-12-10T03:04:21.374Z,9.20
2017-12-10T03:06:49.662Z,10.88
2017-12-10T03:09:18.958Z,14.57
2017-12-10T03:11:47.647Z,10.45
2017-12-10T03:14:18.103Z,13.73
2017-12-10T03:16:46.329Z,15.60
2017-12-10T03:19:14.633Z,11.68
2017-12-10T03:21:42.911Z,8.40
2017-12-10T03:24:13.580Z,10.07
2017-12-10T03:26:43.451Z,9.52
2017-12-10T03:29:12.507Z,7.68
2017-12-10T03:31:40.846Z,9.13
2017-12-10T03:34:09.144Z,13.07
2017-12-10T03:36:37.427Z,8.52
2017-12-10T03:39:07.111Z,9.23
2017-12-10T03:41:35.653Z,9.00
2017-12-10T03:44:05.102Z,8.27
2017-12-10T03:46:33.445Z,15.10
2017-12-10T03:49:02.490Z,14.02
2017-12-10T03:51:31.541Z,17.52
2017-12-10T03:54:01.221Z,7.15
2017-12-10T03:56:29.783Z,10.68
2017-12-10T03:58:59.417Z,9.38
2017-12-10T04:01:28.031Z,9.88
2017-12-10T04:03:57.681Z,10.38
2017-12-10T04:06:26.234Z,9.70
2017-12-10T04:08:55.358Z,9.90
2017-12-10T04:11:25.166Z,9.40
2017-12-10T04:13:53.449Z,10.00
2017-12-10T04:16:21.778Z,8.75
2017-12-10T04:18:50.058Z,8.02
2017-12-10T04:21:19.472Z,9.57
2017-12-10T04:23:47.804Z,7.70
2017-12-10T04:26:17.214Z,13.75
2017-12-10T04:28:46.262Z,8.55
2017-12-10T04:31:17.684Z,8.73
2017-12-10T04:33:47.334Z,12.23
2017-12-10T04:36:15.906Z,7.90
2017-12-10T04:38:44.306Z,9.80
2017-12-10T04:41:13.718Z,10.10
2017-12-10T04:43:42.006Z,9.85
2017-12-10T04:46:10.342Z,8.43
2017-12-10T04:48:42.148Z,6.68
2017-12-10T04:51:10.534Z,11.57
2017-12-10T04:53:38.863Z,7.03
2017-12-10T04:56:08.663Z,7.93
2017-12-10T04:58:36.996Z,6.30
2017-12-10T05:01:05.710Z,14.82
2017-12-10T05:03:35.494Z,8.73
2017-12-10T05:06:03.830Z,17.60
2017-12-10T05:08:32.114Z,13.32
2017-12-10T05:11:01.765Z,13.77
2017-12-10T05:13:31.126Z,24.42
2017-12-10T05:15:59.409Z,16.75
2017-12-10T05:18:29.049Z,15.50
2017-12-10T05:20:57.713Z,16.62
2017-12-10T05:23:25.958Z,15.48
2017-12-10T05:25:55.746Z,15.32
2017-12-10T05:28:24.098Z,11.73
2017-12-10T05:30:53.154Z,12.90
2017-12-10T05:33:22.208Z,13.77
2017-12-10T05:35:50.554Z,13.90
2017-12-10T05:38:18.854Z,13.23
2017-12-10T05:40:47.145Z,19.95
2017-12-10T05:43:16.833Z,16.40
2017-12-10T05:45:45.394Z,16.67
2017-12-10T05:48:14.826Z,18.98
2017-12-10T05:50:44.537Z,14.75
2017-12-10T05:53:14.270Z,16.73
2017-12-10T05:55:42.956Z,23.03
2017-12-10T05:58:12.940Z,11.65
2017-12-10T06:00:41.990Z,14.93
2017-12-10T06:03:11.427Z,30.33
2017-12-10T06:05:39.763Z,10.95
2017-12-10T06:08:08.064Z,13.57
2017-12-10T06:10:36.351Z,15.10
2017-12-10T06:13:04.707Z,21.75
2017-12-10T06:15:34.137Z,19.65
2017-12-10T06:18:03.186Z,15.10
2017-12-10T06:20:32.655Z,10.32
2017-12-10T06:23:02.298Z,8.02
2017-12-10T06:25:31.232Z,15.63
2017-12-10T06:28:00.923Z,14.07
2017-12-10T06:30:30.273Z,12.77
2017-12-10T06:32:58.567Z,12.37
2017-12-10T06:35:26.907Z,12.70
2017-12-10T06:37:56.547Z,7.87
2017-12-10T06:40:25.101Z,8.40
2017-12-10T06:42:54.850Z,15.88
2017-12-10T06:45:23.406Z,10.45
2017-12-10T06:47:51.698Z,10.50
2017-12-10T06:50:21.758Z,12.05
2017-12-10T06:52:50.035Z,10.23
2017-12-10T06:55:19.825Z,18.33
2017-12-10T06:57:48.163Z,17.17
2017-12-10T07:00:16.479Z,23.85
2017-12-10T07:02:46.132Z,26.37
2017-12-10T07:05:14.766Z,32.13
2017-12-10T07:07:43.064Z,31.55
2017-12-10T07:10:11.334Z,15.50
2017-12-10T07:12:39.694Z,20.52
2017-12-10T07:15:09.338Z,26.57
2017-12-10T07:17:38.955Z,30.43
2017-12-10T07:20:07.117Z,26.43
2017-12-10T07:22:35.427Z,29.45
2017-12-10T07:25:05.283Z,18.67
2017-12-10T07:27:33.576Z,15.13
2017-12-10T07:30:01.862Z,18.93
2017-12-10T07:32:30.203Z,13.77
2017-12-10T07:34:58.494Z,14.15
2017-12-10T07:37:26.782Z,14.60
2017-12-10T07:39:56.282Z,14.20
2017-12-10T07:42:26.076Z,13.00
2017-12-10T07:44:55.715Z,10.67
2017-12-10T07:47:23.966Z,17.62
2017-12-10T07:49:53.031Z,17.90
2017-12-10T07:52:22.456Z,23.17
2017-12-10T07:54:51.572Z,22.80
2017-12-10T07:57:20.621Z,22.80
2017-12-10T07:59:50.275Z,12.93
2017-12-10T08:02:19.026Z,12.23
2017-12-10T08:04:47.322Z,21.42
2017-12-10T08:07:17.110Z,20.43
2017-12-10T08:09:45.465Z,23.50
2017-12-10T08:12:13.746Z,42.87
2017-12-10T08:14:43.174Z,15.83
2017-12-10T08:17:11.930Z,18.80
2017-12-10T08:19:40.227Z,13.75
2017-12-10T08:22:08.527Z,15.87
2017-12-10T08:24:36.866Z,18.10
2017-12-10T08:27:06.498Z,21.00
2017-12-10T08:29:34.666Z,13.18
2017-12-10T08:32:03.006Z,19.50
2017-12-10T08:34:31.291Z,19.40
2017-12-10T08:37:00.342Z,14.63
2017-12-10T08:39:28.685Z,23.98
2017-12-10T08:41:56.994Z,19.07
2017-12-10T08:44:26.794Z,23.13
2017-12-10T08:46:55.546Z,18.60
2017-12-10T08:49:24.979Z,17.57
2017-12-10T08:51:53.254Z,13.20
2017-12-10T08:54:24.038Z,17.70
2017-12-10T08:56:52.330Z,17.37
2017-12-10T08:59:21.390Z,23.73
2017-12-10T09:01:49.728Z,13.37
2017-12-10T09:04:18.814Z,17.95
2017-12-10T09:06:48.231Z,12.10
2017-12-10T09:09:16.967Z,12.25
2017-12-10T09:11:46.810Z,8.18
2017-12-10T09:14:15.096Z,15.13
2017-12-10T09:16:44.198Z,12.13
2017-12-10T09:19:12.477Z,9.45
2017-12-10T09:21:42.124Z,14.43
2017-12-10T09:24:10.737Z,11.50
2017-12-10T09:26:39.035Z,14.93
2017-12-10T09:29:07.329Z,13.77
2017-12-10T09:31:36.815Z,15.70
2017-12-10T09:34:05.119Z,10.57
2017-12-10T09:36:33.398Z,15.13
2017-12-10T09:39:01.736Z,11.70
2017-12-10T09:41:30.038Z,14.40
2017-12-10T09:43:59.465Z,16.12
2017-12-10T09:46:27.808Z,14.73
2017-12-10T09:48:56.500Z,15.25
2017-12-10T09:51:24.782Z,14.32
2017-12-10T09:53:54.625Z,15.43
2017-12-10T09:56:24.065Z,14.98
2017-12-10T09:58:53.114Z,20.15
2017-12-10T10:01:22.235Z,18.90
2017-12-10T10:03:50.522Z,12.98
2017-12-10T10:06:19.657Z,17.25
2017-12-10T10:08:48.390Z,17.80
2017-12-10T10:11:16.683Z,14.10
2017-12-10T10:13:44.971Z,17.75
2017-12-10T10:16:14.811Z,18.20
2017-12-10T10:18:43.097Z,19.67
2017-12-10T10:21:12.755Z,22.40
2017-12-10T10:23:41.403Z,13.18
2017-12-10T10:26:09.689Z,17.77
2017-12-10T10:28:37.981Z,16.23
2017-12-10T10:31:06.972Z,16.58
2017-12-10T10:33:36.424Z,17.23
2017-12-10T10:36:04.722Z,20.65
2017-12-10T10:38:33.065Z,12.13
2017-12-10T10:41:02.702Z,12.20
2017-12-10T10:43:31.260Z,16.62
2017-12-10T10:45:59.985Z,19.10
2017-12-10T10:48:28.266Z,16.37
2017-12-10T10:50:57.915Z,13.27
2017-12-10T10:53:26.815Z,11.82
2017-12-10T10:55:55.106Z,15.18
2017-12-10T10:58:23.441Z,12.93
2017-12-10T11:00:52.699Z,12.77
2017-12-10T11:03:20.989Z,11.12
2017-12-10T11:05:49.294Z,13.15
2017-12-10T11:08:18.688Z,14.18
2017-12-10T11:10:47.747Z,15.43
2017-12-10T11:13:17.477Z,17.83
2017-12-10T11:15:46.145Z,8.00
2017-12-10T11:18:14.423Z,11.15
2017-12-10T11:20:43.474Z,14.27
2017-12-10T11:23:11.994Z,11.85
2017-12-10T11:25:40.285Z,8.73
2017-12-10T11:28:08.584Z,10.18
2017-12-10T11:30:38.066Z,11.05
2017-12-10T11:33:06.441Z,10.20
2017-12-10T11:35:35.113Z,10.98
2017-12-10T11:38:03.443Z,8.98
2017-12-10T11:40:32.549Z,28.25
2017-12-10T11:43:00.944Z,11.32
2017-12-10T11:45:29.273Z,30.62
2017-12-10T11:47:57.631Z,35.05
2017-12-10T11:50:26.008Z,16.55
2017-12-10T11:52:54.351Z,23.00
2017-12-10T11:55:23.993Z,13.10
2017-12-10T11:57:53.535Z,19.58
2017-12-10T12:00:23.240Z,15.95
2017-12-10T12:02:51.795Z,24.30
2017-12-10T12:05:20.917Z,16.98
2017-12-10T12:07:50.609Z,31.98
2017-12-10T12:10:20.004Z,33.55
2017-12-10T12:12:48.410Z,31.33
2017-12-10T12:15:16.750Z,25.58
2017-12-10T12:17:45.241Z,14.57
2017-12-10T12:20:14.298Z,9.32
2017-12-10T12:22:42.798Z,26.00
2017-12-10T12:25:11.083Z,15.70
2017-12-10T12:27:39.445Z,29.65
2017-12-10T12:30:07.842Z,27.30
2017-12-10T12:32:37.301Z,28.05
2017-12-10T12:35:05.603Z,29.50
2017-12-10T12:37:33.961Z,31.35
2017-12-10T12:40:03.504Z,36.30
2017-12-10T12:42:32.190Z,26.10
2017-12-10T12:45:01.683Z,28.83
2017-12-10T12:47:31.330Z,28.12
2017-12-10T12:49:59.490Z,26.98
2017-12-10T12:52:27.822Z,43.95
2017-12-10T12:54:56.115Z,42.25
2017-12-10T12:57:24.401Z,36.47
2017-12-10T12:59:52.744Z,28.20
2017-12-10T13:02:21.030Z,23.85
2017-12-10T13:04:49.564Z,33.22
2017-12-10T13:07:18.737Z,27.08
2017-12-10T13:09:47.791Z,37.75
2017-12-10T13:12:17.254Z,35.92
2017-12-10T13:14:45.610Z,40.47
2017-12-10T13:17:13.890Z,55.33
2017-12-10T13:19:42.198Z,63.95
2017-12-10T13:22:11.305Z,26.77
2017-12-10T13:24:40.365Z,47.85
2017-12-10T13:27:09.427Z,31.17
2017-12-10T13:29:37.771Z,29.05
2017-12-10T13:32:06.826Z,26.05
2017-12-10T13:34:35.514Z,36.22
2017-12-10T13:37:04.281Z,46.47
2017-12-10T13:39:32.554Z,65.68
2017-12-10T13:42:00.847Z,89.32
2017-12-10T13:44:29.202Z,27.92
2017-12-10T13:46:58.633Z,19.55
2017-12-10T13:49:27.304Z,22.60
2017-12-10T13:51:55.637Z,26.75
2017-12-10T13:54:25.439Z,25.33
2017-12-10T13:56:53.724Z,36.45
2017-12-10T13:59:23.555Z,68.15
2017-12-10T14:01:53.213Z,41.75
2017-12-10T14:04:22.154Z,36.80
2017-12-10T14:06:51.637Z,48.13
2017-12-10T14:09:21.265Z,19.37
2017-12-10T14:11:49.427Z,17.70
2017-12-10T14:14:17.798Z,19.48
2017-12-10T14:16:46.086Z,17.00
2017-12-10T14:19:15.894Z,22.23
2017-12-10T14:21:44.262Z,23.38
2017-12-10T14:24:12.551Z,17.87
2017-12-10T14:26:42.194Z,20.20
2017-12-10T14:29:11.187Z,16.25
2017-12-10T14:31:40.240Z,22.48
2017-12-10T14:34:08.534Z,12.07
2017-12-10T14:36:37.258Z,9.05
2017-12-10T14:39:05.534Z,11.85
2017-12-10T14:41:34.643Z,15.82
2017-12-10T14:44:03.774Z,18.70
2017-12-10T14:46:32.855Z,20.20
2017-12-10T14:49:01.935Z,16.75
2017-12-10T14:51:30.539Z,32.50
2017-12-10T14:53:59.614Z,43.80
2017-12-10T14:56:27.911Z,16.98
2017-12-10T14:58:57.382Z,20.05
2017-12-10T15:01:27.025Z,25.77
2017-12-10T15:03:56.333Z,18.87
2017-12-10T15:06:26.178Z,24.67
2017-12-10T15:08:54.497Z,30.35
2017-12-10T15:11:22.782Z,21.02
2017-12-10T15:13:51.126Z,18.23
2017-12-10T15:16:20.607Z,15.18
2017-12-10T15:18:48.942Z,21.45
2017-12-10T15:21:18.648Z,33.25
2017-12-10T15:23:48.158Z,32.25
2017-12-10T15:26:16.323Z,27.73
2017-12-10T15:28:46.070Z,20.83
2017-12-10T15:31:16.997Z,25.02
2017-12-10T15:33:46.682Z,24.77
2017-12-10T15:36:15.742Z,26.33
2017-12-10T15:38:45.385Z,28.08
2017-12-10T15:41:13.660Z,22.13
2017-12-10T15:43:43.423Z,58.75
2017-12-10T15:46:11.727Z,25.02
2017-12-10T15:48:40.854Z,31.98
2017-12-10T15:51:09.971Z,29.23
2017-12-10T15:53:38.258Z,39.30
2017-12-10T15:56:06.658Z,32.63
2017-12-10T15:58:34.965Z,32.08
2017-12-10T16:01:03.259Z,20.55
2017-12-10T16:03:31.627Z,19.27
2017-12-10T16:06:01.070Z,26.65
2017-12-10T16:08:29.363Z,14.07
2017-12-10T16:10:57.690Z,18.73
2017-12-10T16:13:25.981Z,19.73
2017-12-10T16:15:55.040Z,22.33
2017-12-10T16:18:23.406Z,15.27
2017-12-10T16:20:51.699Z,8.83
2017-12-10T16:23:19.978Z,13.80
2017-12-10T16:25:49.522Z,27.43
2017-12-10T16:28:17.827Z,20.37
2017-12-10T16:30:46.126Z,17.73
2017-12-10T16:33:15.982Z,12.43
2017-12-10T16:35:44.257Z,23.10
2017-12-10T16:38:14.061Z,20.63
2017-12-10T16:40:42.794Z,17.43
2017-12-10T16:43:11.070Z,29.23
2017-12-10T16:45:39.350Z,18.73
2017-12-10T16:48:07.689Z,19.13
2017-12-10T16:50:36.366Z,17.53
2017-12-10T16:53:04.642Z,23.17
2017-12-10T16:55:33.759Z,19.57
2017-12-10T16:58:02.817Z,19.33
2017-12-10T17:00:31.089Z,29.37
2017-12-10T17:02:59.827Z,27.13
2017-12-10T17:05:28.158Z,19.63
2017-12-10T17:07:57.228Z,20.77
2017-12-10T17:10:25.572Z,16.60
2017-12-10T17:12:53.870Z,9.33
2017-12-10T17:15:23.138Z,19.23
2017-12-10T17:17:51.916Z,15.20
2017-12-10T17:20:20.245Z,26.47
2017-12-10T17:22:48.530Z,20.40
2017-12-10T17:25:16.853Z,14.50
2017-12-10T17:27:45.173Z,25.50
2017-12-10T17:30:13.455Z,19.73
2017-12-10T17:32:43.184Z,24.47
2017-12-10T17:35:12.538Z,26.13
2017-12-10T17:37:40.824Z,23.37
2017-12-10T17:40:09.171Z,17.60
2017-12-10T17:42:38.991Z,15.17
2017-12-10T17:45:08.815Z,16.50
2017-12-10T17:47:37.192Z,25.93
2017-12-10T17:50:06.215Z,31.30
2017-12-10T17:52:35.304Z,20.67
2017-12-10T17:55:03.687Z,25.27
2017-12-10T17:57:32.411Z,14.17
2017-12-10T18:00:00.791Z,15.33
2017-12-10T18:02:30.279Z,11.93
2017-12-10T18:04:58.587Z,20.67
2017-12-10T18:07:28.430Z,19.60
2017-12-10T18:09:56.826Z,20.37
2017-12-10T18:12:26.263Z,15.33
2017-12-10T18:14:55.330Z,26.30
2017-12-10T18:17:23.675Z,31.97
2017-12-10T18:19:52.374Z,20.00
2017-12-10T18:22:20.751Z,20.27
2017-12-10T18:24:50.938Z,35.13
2017-12-10T18:27:19.303Z,21.90
2017-12-10T18:29:47.579Z,12.90
2017-12-10T18:32:17.280Z,14.70
2017-12-10T18:34:45.883Z,25.43
2017-12-10T18:37:14.175Z,22.23
2017-12-10T18:39:42.506Z,13.00
2017-12-10T18:42:11.928Z,20.13
2017-12-10T18:44:40.231Z,25.97
2017-12-10T18:47:08.566Z,25.00
2017-12-10T18:49:38.373Z,19.50
2017-12-10T18:52:06.658Z,18.90
2017-12-10T18:54:35.383Z,27.63
2017-12-10T18:57:04.058Z,21.60
2017-12-10T18:59:32.355Z,17.03
2017-12-10T19:02:00.719Z,23.23
2017-12-10T19:04:29.035Z,19.10
2017-12-10T19:06:58.474Z,18.33
2017-12-10T19:09:26.848Z,17.47
2017-12-10T19:11:55.167Z,21.30
2017-12-10T19:14:23.851Z,13.30
2017-12-10T19:16:52.195Z,15.80
2017-12-10T19:19:22.276Z,10.80
2017-12-10T19:21:51.378Z,14.73
2017-12-10T19:24:21.815Z,14.00
2017-12-10T19:26:50.126Z,20.10
2017-12-10T19:29:20.128Z,13.07
2017-12-10T19:31:48.504Z,13.93
2017-12-10T19:34:16.808Z,15.83
2017-12-10T19:36:45.467Z,10.43
2017-12-10T19:39:14.276Z,7.07
2017-12-10T19:41:43.735Z,5.20
2017-12-10T19:44:13.555Z,15.07
2017-12-10T19:46:42.341Z,8.80
2017-12-10T19:49:10.671Z,9.97
2017-12-10T19:51:41.884Z,16.27
2017-12-10T19:54:10.893Z,24.73
2017-12-10T19:56:39.592Z,28.60
2017-12-10T19:59:11.786Z,17.17
2017-12-10T20:01:43.278Z,26.30
2017-12-10T20:04:34.222Z,24.97
2017-12-10T20:07:02.793Z,26.90
2017-12-10T20:09:31.876Z,8.63
2017-12-10T20:12:00.626Z,9.30
2017-12-10T20:14:28.917Z,9.40
2017-12-10T20:16:57.741Z,4.50
2017-12-10T20:19:26.126Z,3.80
2017-12-10T20:21:55.202Z,9.33
2017-12-10T20:24:28.279Z,6.10
2017-12-10T20:26:56.644Z,8.20
2017-12-10T20:29:24.990Z,4.13
2017-12-10T20:31:54.408Z,4.77
2017-12-10T20:34:22.763Z,2.23
2017-12-10T20:36:51.291Z,6.80
2017-12-10T20:39:19.591Z,2.17
2017-12-10T20:41:49.090Z,3.23
2017-12-10T20:44:17.411Z,3.93
2017-12-10T20:46:45.694Z,5.50
2017-12-10T20:49:14.099Z,2.80
2017-12-10T20:51:43.155Z,4.10
2017-12-10T20:54:12.216Z,3.77
2017-12-10T20:56:40.647Z,3.93
2017-12-10T20:59:09.741Z,3.20
2017-12-10T21:01:38.814Z,4.03
2017-12-10T21:04:07.143Z,4.17
2017-12-10T21:06:36.203Z,4.60
2017-12-10T21:09:04.485Z,7.47
2017-12-10T21:11:32.850Z,6.03
2017-12-10T21:14:01.149Z,4.90
2017-12-10T21:16:30.550Z,6.50
2017-12-10T21:18:59.645Z,5.77
2017-12-10T21:21:28.707Z,5.90
2017-12-10T21:23:57.051Z,8.67
2017-12-10T21:26:25.442Z,8.47
2017-12-10T21:28:53.726Z,7.07
2017-12-10T21:31:23.505Z,6.30
2017-12-10T21:33:51.865Z,6.80
2017-12-10T21:36:21.502Z,7.00
2017-12-10T21:38:50.067Z,7.97
2017-12-10T21:41:18.391Z,9.23
2017-12-10T21:43:46.666Z,7.93
2017-12-10T21:46:14.950Z,8.83
2017-12-10T21:48:44.444Z,10.30
2017-12-10T21:51:13.898Z,11.03
2017-12-10T21:53:42.189Z,12.77
2017-12-10T21:56:12.369Z,15.10
2017-12-10T21:58:40.532Z,14.20
2017-12-10T22:01:09.586Z,16.07
2017-12-10T22:03:37.938Z,14.60
2017-12-10T22:06:06.626Z,15.63
2017-12-10T22:08:34.919Z,18.63
2017-12-10T22:11:03.260Z,18.20
2017-12-10T22:13:31.627Z,17.97
2017-12-10T22:15:59.939Z,17.97
2017-12-10T22:18:28.277Z,18.20
2017-12-10T22:20:57.338Z,15.80
2017-12-10T22:23:26.386Z,15.23
2017-12-10T22:25:54.971Z,14.73
2017-12-10T22:28:23.758Z,16.20
2017-12-10T22:30:53.422Z,17.87
2017-12-10T22:33:22.063Z,16.80
2017-12-10T22:35:51.155Z,17.83
2017-12-10T22:38:20.233Z,18.60
2017-12-10T22:40:51.147Z,20.47
2017-12-10T22:43:19.459Z,17.70
2017-12-10T22:45:48.538Z,18.40
2017-12-10T22:48:16.895Z,18.50
2017-12-10T22:50:45.182Z,19.80
2017-12-10T22:53:13.470Z,17.47
2017-12-10T22:55:41.826Z,16.23
2017-12-10T22:58:10.111Z,17.87
2017-12-10T23:00:39.890Z,15.67
2017-12-10T23:03:08.243Z,15.87
2017-12-10T23:05:36.525Z,15.90
2017-12-10T23:08:06.220Z,13.53
2017-12-10T23:10:34.805Z,14.60
2017-12-10T23:13:03.865Z,15.33
2017-12-10T23:15:36.591Z,14.43
2017-12-10T23:18:06.022Z,13.90
2017-12-10T23:20:35.662Z,13.70
2017-12-10T23:23:04.893Z,16.80
2017-12-10T23:25:34.325Z,12.97
2017-12-10T23:28:02.610Z,14.70
2017-12-10T23:30:32.385Z,16.23
2017-12-10T23:33:00.967Z,14.07
2017-12-10T23:35:29.271Z,15.43
2017-12-10T23:37:57.614Z,14.83
2017-12-10T23:40:25.907Z,15.80
2017-12-10T23:42:54.194Z,15.57
2017-12-10T23:45:23.330Z,15.27
2017-12-10T23:47:52.438Z,14.60
2017-12-10T23:50:21.508Z,17.67
2017-12-10T23:52:49.864Z,15.03
2017-12-10T23:55:19.659Z,13.93
2017-12-10T23:57:49.349Z,15.47
